Weather History for KFRM - May, 2014

Change the Weather History Date:

Saturday, May 3, 2014

  Actual Average Record
Temperature  
Mean Temperature 48 °F -  
Max Temperature 60 °F 65 °F 91 °F (1949)
Min Temperature 37 °F 42 °F 24 °F (1967)
Degree Days  
Heating Degree Days 16    
Moisture  
Dew Point 33 °F    
Average Humidity 51    
Maximum Humidity 81    
Minimum Humidity 29    
Precipitation  
Precipitation 0.00 in - - ()
Sea Level Pressure  
Sea Level Pressure 29.89 in    
Wind  
Wind Speed 11 mph (NW)    
Max Wind Speed 21 mph    
Max Gust Speed 30 mph    
Visibility 10 miles    
Events      
Averages and records for this station are not official NWS values.
T = Trace of Precipitation, MM = Missing Value Source: NWS Daily Summary

Daily Weather History Graph

Daily Weather History Graph

Search for Another Location

Airport or City:

Trip Planner

Search our weather history database for the weather conditions in past years. The results will help you decide how hot, cold, wet, or windy it might be!

Date:

Astronomy

May. 03, 2014 Rise Set
Actual Time 6:07 AM CDT 8:22 PM CDT
Civil Twilight 5:35 AM CDT 8:54 PM CDT
Nautical Twilight 4:56 AM CDT 9:33 PM CDT
Astronomical Twilight 4:13 AM CDT 10:17 PM CDT
Moon 9:36 AM CDT (5/3) No Moon Set
Length of Visible Light 15h 18m
Length of Day
14h 15m
Waxing Crescent, 20% of the Moon is Illuminated
May 3
Waxing Crescent
May 6
First Quarter
May 14
Full
May 21
Last Quarter
May 28
New

Hourly Weather History & Observations

Time (CDT) Temp. Windchill Dew Point Humidity Pressure Visibility Wind Dir Wind Speed Gust Speed Precip Events Conditions
12:15 AM 46.4 °F 41.5 °F 33.8 °F 62% 29.79 in 10.0 mi West 10.4 mph - N/A   Partly Cloudy
12:35 AM 44.6 °F 39.7 °F 33.8 °F 66% 29.79 in 10.0 mi West 9.2 mph - N/A   Clear
12:55 AM 44.6 °F 39.2 °F 33.8 °F 66% 29.79 in 10.0 mi West 10.4 mph - N/A   Clear
1:15 AM 44.6 °F 39.2 °F 33.8 °F 66% 29.79 in 10.0 mi West 10.4 mph - N/A   Clear
1:35 AM 44.6 °F 39.7 °F 33.8 °F 66% 29.80 in 10.0 mi West 9.2 mph - N/A   Clear
1:55 AM 44.6 °F 39.7 °F 33.8 °F 66% 29.80 in 10.0 mi West 9.2 mph - N/A   Clear
2:15 AM 44.6 °F 39.2 °F 33.8 °F 66% 29.80 in 10.0 mi West 10.4 mph - N/A   Clear
2:35 AM 42.8 °F 38.0 °F 32.0 °F 66% 29.80 in 10.0 mi West 8.1 mph - N/A   Clear
2:55 AM 42.8 °F 37.0 °F 32.0 °F 66% 29.81 in 10.0 mi West 10.4 mph - N/A   Clear
3:15 AM 42.8 °F 37.0 °F 32.0 °F 66% 29.81 in 10.0 mi West 10.4 mph - N/A   Clear
3:35 AM 41.0 °F 34.7 °F 32.0 °F 70% 29.81 in 10.0 mi West 10.4 mph - N/A   Clear
3:55 AM 41.0 °F 35.2 °F 32.0 °F 70% 29.82 in 10.0 mi West 9.2 mph - N/A   Clear
4:15 AM 41.0 °F 35.2 °F 30.2 °F 65% 29.82 in 10.0 mi West 9.2 mph - N/A   Clear
4:35 AM 39.2 °F 33.6 °F 30.2 °F 70% 29.83 in 10.0 mi West 8.1 mph - N/A   Clear
5:15 AM 39.2 °F 33.6 °F 32.0 °F 75% 29.83 in 10.0 mi West 8.1 mph - N/A   Clear
5:35 AM 39.2 °F 34.2 °F 32.0 °F 75% 29.83 in 10.0 mi West 6.9 mph - N/A   Clear
5:55 AM 37.4 °F 32.1 °F 32.0 °F 81% 29.83 in 10.0 mi West 6.9 mph - N/A   Clear
6:15 AM 39.2 °F 34.2 °F 32.0 °F 75% 29.83 in 10.0 mi West 6.9 mph - N/A   Clear
6:35 AM 39.2 °F 34.2 °F 32.0 °F 75% 29.83 in 10.0 mi West 6.9 mph - N/A   Partly Cloudy
6:55 AM 39.2 °F 34.2 °F 32.0 °F 75% 29.85 in 10.0 mi WNW 6.9 mph - N/A   Scattered Clouds
7:15 AM 41.0 °F 34.7 °F 32.0 °F 70% 29.86 in 10.0 mi WNW 10.4 mph - N/A   Mostly Cloudy
7:35 AM 42.8 °F 37.0 °F 32.0 °F 66% 29.86 in 10.0 mi WNW 10.4 mph - N/A   Overcast
7:55 AM 46.4 °F 41.1 °F 33.8 °F 62% 29.86 in 10.0 mi WNW 11.5 mph - N/A   Overcast
8:15 AM 46.4 °F 40.7 °F 33.8 °F 62% 29.86 in 10.0 mi WNW 12.7 mph - N/A   Overcast
8:35 AM 48.2 °F - 33.8 °F 58% 29.87 in 10.0 mi WNW 11.5 mph - N/A   Overcast
8:55 AM 50.0 °F - 33.8 °F 54% 29.88 in 10.0 mi NW 15.0 mph - N/A   Mostly Cloudy
9:15 AM 50.0 °F - 32.0 °F 50% 29.87 in 10.0 mi NW 17.3 mph - N/A   Overcast
9:35 AM 50.0 °F - 33.8 °F 54% 29.88 in 10.0 mi NW 15.0 mph - N/A   Overcast
9:55 AM 50.0 °F - 33.8 °F 54% 29.88 in 10.0 mi NW 12.7 mph - N/A   Overcast
10:15 AM 51.8 °F - 35.6 °F 54% 29.88 in 10.0 mi WNW 12.7 mph - N/A   Overcast
10:35 AM 53.6 °F - 35.6 °F 51% 29.88 in 10.0 mi NNW 10.4 mph - N/A   Scattered Clouds
10:55 AM 53.6 °F - 35.6 °F 51% 29.89 in 10.0 mi NW 11.5 mph - N/A   Mostly Cloudy
11:15 AM 55.4 °F - 35.6 °F 47% 29.89 in 10.0 mi NW 11.5 mph - N/A   Mostly Cloudy
11:35 AM 57.2 °F - 35.6 °F 44% 29.90 in 10.0 mi NW 13.8 mph - N/A   Partly Cloudy
11:55 AM 57.2 °F - 33.8 °F 41% 29.89 in 10.0 mi NNW 12.7 mph 18.4 mph N/A   Clear
12:15 PM 57.2 °F - 35.6 °F 44% 29.90 in 10.0 mi WNW 19.6 mph 24.2 mph N/A   Clear
12:35 PM 57.2 °F - 35.6 °F 44% 29.90 in 10.0 mi NNW 17.3 mph 23.0 mph N/A   Partly Cloudy
12:55 PM 59.0 °F - 35.6 °F 42% 29.90 in 10.0 mi NW 13.8 mph 23.0 mph N/A   Mostly Cloudy
1:15 PM 60.8 °F - 33.8 °F 36% 29.89 in 10.0 mi NW 19.6 mph 23.0 mph N/A   Mostly Cloudy
1:35 PM 60.8 °F - 33.8 °F 36% 29.89 in 10.0 mi NW 20.7 mph 27.6 mph N/A   Scattered Clouds
1:55 PM 60.8 °F - 33.8 °F 36% 29.90 in 10.0 mi NW 16.1 mph 29.9 mph N/A   Partly Cloudy
2:15 PM 60.8 °F - 33.8 °F 36% 29.90 in 10.0 mi NNW 19.6 mph 25.3 mph N/A   Scattered Clouds
2:35 PM 60.8 °F - 30.2 °F 31% 29.90 in 10.0 mi NW 17.3 mph 28.8 mph N/A   Scattered Clouds
3:15 PM 60.8 °F - 30.2 °F 31% 29.91 in 10.0 mi NNW 16.1 mph 27.6 mph N/A   Partly Cloudy
3:35 PM 60.8 °F - 30.2 °F 31% 29.91 in 10.0 mi NW 17.3 mph 23.0 mph N/A   Scattered Clouds
3:55 PM 60.8 °F - 30.2 °F 31% 29.90 in 10.0 mi NNW 15.0 mph 19.6 mph N/A   Partly Cloudy
4:15 PM 60.8 °F - 28.4 °F 29% 29.91 in 10.0 mi NW 16.1 mph 23.0 mph N/A   Partly Cloudy
4:35 PM 60.8 °F - 28.4 °F 29% 29.91 in 10.0 mi NNW 17.3 mph - N/A   Partly Cloudy
4:55 PM 60.8 °F - 28.4 °F 29% 29.92 in 10.0 mi NNW 19.6 mph - N/A   Partly Cloudy
5:15 PM 60.8 °F - 30.2 °F 31% 29.92 in 10.0 mi WNW 18.4 mph - N/A   Scattered Clouds
5:35 PM 59.0 °F - 28.4 °F 31% 29.92 in 10.0 mi NW 12.7 mph 20.7 mph N/A   Mostly Cloudy
5:55 PM 60.8 °F - 30.2 °F 31% 29.92 in 10.0 mi NW 15.0 mph - N/A   Scattered Clouds
6:15 PM 60.8 °F - 30.2 °F 31% 29.92 in 10.0 mi North 11.5 mph - N/A   Scattered Clouds
6:35 PM 59.0 °F - 28.4 °F 31% 29.93 in 10.0 mi NNW 11.5 mph - N/A   Partly Cloudy
6:55 PM 59.0 °F - 28.4 °F 31% 29.92 in 10.0 mi NNW 12.7 mph - N/A   Clear
7:15 PM 57.2 °F - 28.4 °F 33% 29.93 in 10.0 mi NNW 9.2 mph - N/A   Mostly Cloudy
7:35 PM 57.2 °F - 30.2 °F 36% 29.94 in 10.0 mi North 9.2 mph - N/A   Mostly Cloudy
7:55 PM 55.4 °F - 30.2 °F 38% 29.94 in 10.0 mi NNW 8.1 mph - N/A   Overcast
8:15 PM 55.4 °F - 30.2 °F 38% 29.94 in 10.0 mi North 5.8 mph - N/A   Overcast
8:35 PM 53.6 °F - 32.0 °F 44% 29.95 in 10.0 mi NNW 4.6 mph - N/A   Overcast
8:55 PM 53.6 °F - 33.8 °F 47% 29.95 in 10.0 mi NNW 5.8 mph - N/A   Overcast
9:15 PM 53.6 °F - 33.8 °F 47% 29.96 in 10.0 mi NNW 4.6 mph - N/A   Overcast
9:35 PM 53.6 °F - 33.8 °F 47% 29.97 in 10.0 mi NNW 4.6 mph - N/A   Overcast
9:55 PM 51.8 °F - 33.8 °F 50% 29.98 in 10.0 mi North 6.9 mph - N/A   Overcast
10:15 PM 51.8 °F - 35.6 °F 54% 29.98 in 10.0 mi North - - N/A   Overcast
10:35 PM 51.8 °F - 35.6 °F 54% 29.99 in 10.0 mi North 4.6 mph - N/A   Overcast
10:55 PM 51.8 °F - 35.6 °F 54% 29.99 in 10.0 mi North 8.1 mph - N/A   Overcast
11:15 PM 51.8 °F - 33.8 °F 50% 29.99 in 10.0 mi North 9.2 mph - N/A   Overcast
11:35 PM 50.0 °F - 33.8 °F 54% 29.99 in 10.0 mi NNW 10.4 mph - N/A   Overcast
11:55 PM 48.2 °F - 33.8 °F 58% 29.99 in 10.0 mi NNW 9.2 mph - N/A   Mostly Cloudy